Time;durP1;ratioP1;P1;durP2;ratioP2;P2;SDS_P1;SDS_P2;PMS_P1;PMS_P2;Temp;Humidity;BMP_temperature;BMP_pressure;BME280_temperature;BME280_humidity;BME280_pressure;Samples;Min_cycle;Max_cycle;Signal;HPM_P1;HPM_P2
2023/03/21 00:04:32;;;;;;;20.95;11.18;;;;;;;7.81;73.81;100531.22;10179676;29;20072;-79
2023/03/21 00:09:54;;;;;;;25.30;11.25;;;;;;;7.82;74.33;100528.47;10179227;29;20066;-81
2023/03/21 00:15:08;;;;;;;24.77;11.48;;;;;;;7.88;73.76;100524.50;10171604;29;20044;-80
2023/03/21 00:20:14;;;;;;;25.33;11.52;;;;;;;7.91;73.52;100513.59;10158886;29;20473;-79
2023/03/21 00:25:17;;;;;;;23.98;11.68;;;;;;;8.07;72.79;100508.91;10164382;29;20044;-80
2023/03/21 00:30:21;;;;;;;21.25;11.15;;;;;;;8.07;72.71;100516.09;10177943;29;20051;-80
2023/03/21 00:35:27;;;;;;;26.83;10.43;;;;;;;7.85;73.32;100514.88;10193871;29;20055;-80
2023/03/21 00:40:50;;;;;;;24.23;9.52;;;;;;;7.85;74.29;100501.50;10162388;29;20063;-81
2023/03/21 00:45:53;;;;;;;25.95;12.38;;;;;;;7.84;74.59;100499.75;10182829;29;20427;-81
2023/03/21 00:50:59;;;;;;;20.50;10.77;;;;;;;7.81;74.80;100494.63;10192828;29;20460;-79
2023/03/21 00:56:02;;;;;;;30.52;11.70;;;;;;;7.92;74.05;100492.06;10159816;29;20048;-79
2023/03/21 01:01:08;;;;;;;23.77;11.80;;;;;;;8.10;73.52;100489.97;10187878;29;20068;-78
2023/03/21 01:06:13;;;;;;;31.13;12.52;;;;;;;7.68;75.98;100483.06;10199142;29;20052;-80
2023/03/21 01:11:18;;;;;;;23.45;11.30;;;;;;;7.73;76.69;100484.47;10184834;29;20099;-80
2023/03/21 01:16:21;;;;;;;24.33;10.70;;;;;;;7.38;79.69;100473.47;10181958;29;20067;-79
2023/03/21 01:21:25;;;;;;;28.27;13.15;;;;;;;7.48;80.22;100476.38;10208586;29;20051;-79
2023/03/21 01:26:29;;;;;;;32.10;14.50;;;;;;;7.71;79.69;100483.72;10198463;29;20056;-78
2023/03/21 01:31:32;;;;;;;26.58;14.80;;;;;;;7.54;80.56;100478.63;10192189;29;20067;-80
2023/03/21 01:36:37;;;;;;;34.05;15.20;;;;;;;7.59;81.15;100472.97;10181818;29;20157;-81
2023/03/21 01:41:44;;;;;;;26.25;16.13;;;;;;;7.38;82.67;100470.78;10203011;29;20043;-81
2023/03/21 01:46:58;;;;;;;30.05;16.73;;;;;;;7.35;83.44;100462.97;10161342;29;20075;-80
2023/03/21 01:52:28;;;;;;;30.95;15.52;;;;;;;7.41;83.83;100465.25;10203427;29;20102;-80
2023/03/21 01:57:47;;;;;;;31.40;17.08;;;;;;;7.48;83.77;100450.50;10172157;29;20067;-79
2023/03/21 02:03:10;;;;;;;36.20;16.33;;;;;;;7.53;83.88;100450.19;10178613;29;20044;-80
2023/03/21 02:08:34;;;;;;;32.55;17.27;;;;;;;7.42;84.38;100450.06;10178537;29;20056;-79
2023/03/21 02:13:46;;;;;;;35.85;17.48;;;;;;;7.40;84.53;100435.94;10181557;29;20048;-78
2023/03/21 02:19:00;;;;;;;40.15;18.20;;;;;;;7.44;84.87;100434.78;10146152;29;20607;-79
2023/03/21 02:24:39;;;;;;;34.97;18.52;;;;;;;7.49;84.63;100428.16;10154735;29;20139;-79
2023/03/21 02:30:36;;;;;;;45.80;20.25;;;;;;;7.54;85.04;100426.97;10171908;29;20472;-78
2023/03/21 02:36:16;;;;;;;41.08;19.60;;;;;;;7.52;85.23;100415.56;10136071;29;20060;-79
2023/03/21 02:41:28;;;;;;;35.75;19.55;;;;;;;7.54;85.23;100417.13;10130670;29;20197;-78
2023/03/21 02:46:46;;;;;;;43.60;19.60;;;;;;;7.53;85.40;100420.78;10184786;29;20116;-79
2023/03/21 02:52:04;;;;;;;39.95;19.77;;;;;;;7.34;86.49;100409.63;10168025;29;20136;-81
2023/03/21 02:57:22;;;;;;;39.38;19.67;;;;;;;7.24;86.82;100409.38;10174524;29;20052;-80
2023/03/21 03:02:34;;;;;;;38.95;19.95;;;;;;;7.28;86.62;100403.72;10179224;29;20043;-80
2023/03/21 03:07:46;;;;;;;41.20;19.52;;;;;;;7.21;87.00;100406.91;10201090;29;20056;-79
2023/03/21 03:13:03;;;;;;;45.80;22.60;;;;;;;7.31;87.39;100410.69;10178564;29;20055;-80
2023/03/21 03:18:13;;;;;;;47.92;22.58;;;;;;;7.44;86.92;100414.25;10196707;29;20052;-79
2023/03/21 03:23:25;;;;;;;42.13;21.27;;;;;;;7.45;87.38;100401.75;10183475;29;20396;-80
2023/03/21 03:28:32;;;;;;;;;;;;;;;7.54;87.01;100402.94;10175271;29;20086;-80
2023/03/21 03:33:40;;;;;;;51.10;22.42;;;;;;;7.51;87.25;100401.31;10165036;29;20351;-79
2023/03/21 03:38:46;;;;;;;51.53;24.88;;;;;;;7.59;86.99;100390.09;10197680;29;20537;-80
2023/03/21 03:43:53;;;;;;;54.53;25.15;;;;;;;7.66;86.69;100394.94;10180194;29;20036;-82
2023/03/21 03:49:05;;;;;;;48.25;23.83;;;;;;;7.28;88.68;100401.06;10181731;29;20384;-79
2023/03/21 03:54:13;;;;;;;52.08;24.60;;;;;;;7.48;87.45;100391.69;10173188;29;20623;-79
2023/03/21 03:59:20;;;;;;;53.60;25.08;;;;;;;7.67;86.98;100391.28;10162613;29;20126;-79
2023/03/21 04:04:36;;;;;;;47.40;22.67;;;;;;;7.72;86.64;100389.16;10182279;29;20043;-79
2023/03/21 04:09:39;;;;;;;47.40;23.70;;;;;;;7.81;86.54;100387.66;10179994;29;20111;-79
2023/03/21 04:14:52;;;;;;;56.97;24.13;;;;;;;7.84;86.28;100378.56;10189436;29;20541;-79
2023/03/21 04:19:58;;;;;;;41.72;22.17;;;;;;;7.89;86.55;100379.09;10186922;29;20843;-80
2023/03/21 04:25:14;;;;;;;50.13;22.45;;;;;;;7.94;85.94;100376.97;10150141;29;20112;-80
2023/03/21 04:30:35;;;;;;;49.70;21.63;;;;;;;7.92;85.70;100382.41;10170484;29;20048;-78
2023/03/21 04:35:46;;;;;;;51.50;21.67;;;;;;;7.95;85.03;100376.00;10183037;29;20427;-78
2023/03/21 04:40:49;;;;;;;32.15;16.52;;;;;;;7.85;83.77;100369.59;10155207;29;20048;-78
2023/03/21 04:45:54;;;;;;;42.10;18.38;;;;;;;7.73;83.42;100371.28;10167650;29;20047;-78
2023/03/21 04:50:57;;;;;;;40.78;17.48;;;;;;;7.50;83.00;100360.38;10182064;29;20376;-79
2023/03/21 04:56:03;;;;;;;34.35;15.93;;;;;;;7.84;81.95;100351.81;10172403;29;20036;-78
2023/03/21 05:01:07;;;;;;;33.15;16.45;;;;;;;7.87;81.59;100351.59;10190291;29;20044;-79
2023/03/21 05:06:10;;;;;;;31.85;16.67;;;;;;;7.91;81.16;100356.63;10152653;29;20032;-78
2023/03/21 05:11:13;;;;;;;36.50;16.23;;;;;;;7.99;80.63;100348.09;10169615;29;20083;-76
2023/03/21 05:16:17;;;;;;;35.55;17.00;;;;;;;8.11;80.95;100363.25;10169623;29;20230;-80
2023/03/21 05:21:20;;;;;;;31.50;15.27;;;;;;;8.05;79.73;100354.81;10176576;29;20118;-79
2023/03/21 05:26:25;;;;;;;31.33;17.00;;;;;;;8.09;79.64;100348.25;10166083;29;20047;-79
2023/03/21 05:31:37;;;;;;;30.17;16.63;;;;;;;8.11;79.04;100352.53;10171853;29;20048;-80
2023/03/21 05:36:44;;;;;;;38.15;16.85;;;;;;;8.22;79.21;100345.56;10173688;29;20043;-79
2023/03/21 05:41:47;;;;;;;35.75;14.18;;;;;;;8.18;78.52;100339.59;10180544;29;20054;-80
2023/03/21 05:46:52;;;;;;;34.00;15.80;;;;;;;8.30;78.04;100340.53;10164460;29;20047;-78
2023/03/21 05:52:00;;;;;;;38.50;15.40;;;;;;;8.22;77.30;100345.56;10170133;29;20078;-80
2023/03/21 05:57:04;;;;;;;29.00;14.38;;;;;;;8.45;77.10;100343.91;10169513;29;20056;-80
2023/03/21 06:02:27;;;;;;;29.98;14.90;;;;;;;8.43;76.47;100340.50;10166023;29;20465;-79
2023/03/21 06:07:34;;;;;;;31.80;15.13;;;;;;;8.48;75.78;100344.59;10180573;29;20511;-80
2023/03/21 06:12:37;;;;;;;27.02;13.02;;;;;;;8.58;75.11;100352.78;10168470;29;20127;-78
2023/03/21 06:18:00;;;;;;;27.08;12.98;;;;;;;8.64;74.66;100348.81;10198691;29;20123;-79
2023/03/21 06:23:03;;;;;;;26.52;13.02;;;;;;;8.70;73.70;100348.38;10176827;29;20044;-78
2023/03/21 06:28:06;;;;;;;30.02;13.27;;;;;;;8.81;73.18;100349.28;10164720;29;20052;-78
2023/03/21 06:33:15;;;;;;;24.40;13.15;;;;;;;8.98;72.86;100345.34;10170749;29;20689;-80
2023/03/21 06:38:19;;;;;;;24.52;13.27;;;;;;;8.96;72.02;100355.31;10166605;29;20099;-79
2023/03/21 06:43:24;;;;;;;33.80;13.77;;;;;;;9.03;72.24;100342.31;10161566;29;20060;-78
2023/03/21 06:48:28;;;;;;;26.77;13.30;;;;;;;9.09;71.96;100339.19;10159738;29;20076;-78
2023/03/21 06:53:32;;;;;;;22.30;11.95;;;;;;;9.08;71.69;100347.31;10182201;29;20031;-77
2023/03/21 06:58:59;;;;;;;22.83;13.27;;;;;;;9.14;71.26;100349.56;10167826;29;20130;-78
2023/03/21 07:04:22;;;;;;;23.67;13.48;;;;;;;9.38;70.60;100349.50;10157050;29;20393;-80
2023/03/21 07:09:26;;;;;;;25.90;13.50;;;;;;;9.32;70.34;100345.44;10159769;29;20087;-78
2023/03/21 07:14:33;;;;;;;24.50;12.82;;;;;;;9.53;70.11;100347.47;10158178;29;20128;-79
2023/03/21 07:19:37;;;;;;;22.00;10.25;;;;;;;9.17;70.48;100346.63;10163005;29;20415;-80
2023/03/21 07:24:40;;;;;;;20.42;11.30;;;;;;;9.58;69.90;100347.97;10163940;29;20036;-79
2023/03/21 07:29:45;;;;;;;25.25;12.70;;;;;;;9.46;69.65;100355.13;10180864;29;20047;-80
2023/03/21 07:34:50;;;;;;;30.08;12.68;;;;;;;9.60;69.44;100349.56;10189644;29;20091;-80
2023/03/21 07:39:53;;;;;;;25.05;13.00;;;;;;;9.39;69.67;100352.06;10205036;29;20047;-80
2023/03/21 07:45:00;;;;;;;28.77;13.70;;;;;;;9.64;69.19;100358.22;10177564;29;20039;-81
2023/03/21 07:50:10;;;;;;;23.92;12.80;;;;;;;9.58;69.65;100347.97;10156241;29;20057;-81
2023/03/21 07:55:13;;;;;;;29.30;14.02;;;;;;;9.77;69.25;100358.13;10149367;29;20048;-81
2023/03/21 08:00:21;;;;;;;32.72;12.40;;;;;;;9.38;70.07;100354.84;10150471;29;20048;-81
2023/03/21 08:05:28;;;;;;;29.27;10.38;;;;;;;9.14;72.08;100360.28;10140828;29;20083;-79
2023/03/21 08:10:31;;;;;;;24.10;11.23;;;;;;;8.88;74.16;100364.88;10137364;29;20131;-80
2023/03/21 08:15:34;;;;;;;31.58;12.07;;;;;;;8.98;74.28;100358.72;10151125;29;20403;-80
2023/03/21 08:20:39;;;;;;;20.02;10.60;;;;;;;9.12;74.47;100359.53;10140869;29;20051;-80
2023/03/21 08:25:41;;;;;;;23.15;11.45;;;;;;;9.21;75.10;100356.13;10140578;29;20423;-79
2023/03/21 08:30:44;;;;;;;28.75;13.75;;;;;;;9.23;76.32;100363.09;10133867;29;20467;-79
2023/03/21 08:35:48;;;;;;;24.38;11.13;;;;;;;8.42;78.49;100365.53;10143625;29;20067;-80
2023/03/21 08:40:51;;;;;;;22.63;11.80;;;;;;;7.88;82.24;100364.03;10151720;29;20048;-79
2023/03/21 08:45:54;;;;;;;26.02;13.07;;;;;;;8.30;81.84;100370.81;10140594;29;20421;-79
2023/03/21 08:51:01;;;;;;;27.77;13.05;;;;;;;8.63;81.66;100365.84;10154487;29;20079;-80
2023/03/21 08:56:05;;;;;;;31.77;15.32;;;;;;;8.86;81.33;100366.81;10133333;29;20055;-79
2023/03/21 09:01:10;;;;;;;26.80;14.10;;;;;;;8.73;81.72;100356.19;10139037;29;20194;-79
2023/03/21 09:06:14;;;;;;;30.98;13.70;;;;;;;8.68;81.68;100361.88;10152271;29;20520;-80
2023/03/21 09:11:17;;;;;;;24.73;11.80;;;;;;;8.57;82.15;100357.28;10158140;29;20055;-80
2023/03/21 09:16:20;;;;;;;26.50;13.48;;;;;;;8.59;82.18;100360.72;10146841;29;21304;-80
2023/03/21 09:21:24;;;;;;;29.15;12.82;;;;;;;8.53;82.41;100368.31;10159242;29;20051;-80
2023/03/21 09:26:27;;;;;;;31.08;13.35;;;;;;;8.53;83.30;100350.47;10151938;29;20052;-81
2023/03/21 09:31:30;;;;;;;28.67;13.77;;;;;;;8.54;84.06;100364.69;10150037;29;20048;-79
2023/03/21 09:36:35;;;;;;;26.85;14.27;;;;;;;8.10;85.70;100368.72;10155638;29;20052;-80
2023/03/21 09:41:55;;;;;;;30.40;13.45;;;;;;;8.33;85.55;100356.38;10146429;29;20048;-78
2023/03/21 09:47:03;;;;;;;36.88;13.70;;;;;;;8.02;86.52;100368.41;10155049;29;20050;-79
2023/03/21 09:52:15;;;;;;;31.15;14.45;;;;;;;8.38;86.44;100360.41;10147444;29;20598;-80
2023/03/21 09:57:29;;;;;;;27.30;14.20;;;;;;;8.46;86.78;100353.69;10131789;29;20053;-78
2023/03/21 10:02:38;;;;;;;33.40;14.63;;;;;;;8.66;86.06;100352.22;10141937;29;20287;-78
2023/03/21 10:07:49;;;;;;;32.92;14.82;;;;;;;8.76;85.31;100354.13;10153660;29;20095;-79
2023/03/21 10:12:55;;;;;;;31.58;13.68;;;;;;;8.77;84.92;100361.19;10121463;29;20056;-79
2023/03/21 10:18:01;;;;;;;24.10;13.20;;;;;;;8.83;84.96;100365.22;10153542;29;20093;-79
2023/03/21 10:23:08;;;;;;;24.05;10.55;;;;;;;8.69;84.54;100347.50;10148267;29;20482;-79
2023/03/21 10:28:16;;;;;;;21.50;11.05;;;;;;;8.81;84.95;100337.72;10150620;29;20467;-78
2023/03/21 10:33:22;;;;;;;25.92;13.55;;;;;;;9.00;84.77;100334.53;10156442;29;20120;-79
2023/03/21 10:38:27;;;;;;;30.70;13.68;;;;;;;9.19;84.34;100337.50;10144885;29;20056;-81
2023/03/21 10:43:37;;;;;;;21.83;10.38;;;;;;;9.22;83.27;100331.06;10156359;29;20116;-81
2023/03/21 10:48:44;;;;;;;23.88;12.88;;;;;;;9.73;82.62;100322.63;10126459;29;20057;-78
2023/03/21 10:53:53;;;;;;;18.45;10.13;;;;;;;9.43;82.45;100321.34;10160370;29;20051;-80
2023/03/21 10:58:59;;;;;;;23.75;13.38;;;;;;;9.60;82.61;100325.44;10150527;29;20055;-81
2023/03/21 11:04:08;;;;;;;22.42;11.00;;;;;;;9.43;83.19;100320.50;10144478;29;20051;-79
2023/03/21 11:09:16;;;;;;;24.85;12.65;;;;;;;9.55;82.85;100316.03;10145672;29;20059;-80
2023/03/21 11:14:31;;;;;;;25.65;11.13;;;;;;;9.49;81.91;100314.69;10149360;29;20208;-81
2023/03/21 11:19:36;;;;;;;20.90;10.88;;;;;;;9.43;82.35;100318.66;10156948;29;21147;-81
2023/03/21 11:24:41;;;;;;;24.48;12.43;;;;;;;9.40;82.58;100318.06;10151551;29;20059;-80
2023/03/21 11:29:47;;;;;;;23.17;10.52;;;;;;;9.26;83.08;100311.94;10148669;29;20058;-80
2023/03/21 11:34:56;;;;;;;20.35;10.35;;;;;;;9.30;83.25;100312.56;10148021;29;20044;-81
2023/03/21 11:40:18;;;;;;;19.73;9.85;;;;;;;8.96;84.60;100308.91;10153017;29;20074;-80
2023/03/21 11:45:23;;;;;;;16.92;9.68;;;;;;;9.21;84.20;100310.59;10147141;29;20052;-80
2023/03/21 11:50:31;;;;;;;18.65;9.48;;;;;;;9.41;82.86;100296.50;10151838;29;20048;-80
2023/03/21 11:55:45;;;;;;;20.98;10.55;;;;;;;9.60;83.21;100293.25;10157152;29;20666;-80
2023/03/21 12:00:56;;;;;;;19.52;11.07;;;;;;;9.42;82.88;100271.41;10148233;29;20160;-80
2023/03/21 12:06:02;;;;;;;20.20;10.15;;;;;;;9.42;82.27;100275.91;10147471;29;20071;-80
2023/03/21 12:11:15;;;;;;;16.67;10.07;;;;;;;9.41;82.49;100260.81;10129392;29;20523;-80
2023/03/21 12:16:45;;;;;;;21.70;11.15;;;;;;;9.57;82.04;100257.75;10121127;29;20663;-81
2023/03/21 12:22:01;;;;;;;16.95;10.70;;;;;;;9.26;83.86;100249.44;10157306;29;20051;-79
2023/03/21 12:27:12;;;;;;;21.60;11.55;;;;;;;9.16;84.73;100248.44;10143264;29;20190;-80
2023/03/21 12:32:35;;;;;;;22.15;11.40;;;;;;;9.44;84.55;100242.66;10149830;29;20055;-79
2023/03/21 12:37:41;;;;;;;;;;;;;;;9.42;85.15;100233.88;10151121;29;20064;-80
2023/03/21 12:43:02;;;;;;;23.02;11.93;;;;;;;9.21;85.11;100231.03;10140469;29;19949;-80
2023/03/21 12:48:16;;;;;;;20.75;11.07;;;;;;;9.53;84.74;100208.03;10150916;29;20071;-77
2023/03/21 12:53:39;;;;;;;24.48;10.57;;;;;;;9.34;84.90;100220.22;10153973;29;20067;-80
2023/03/21 12:58:48;;;;;;;24.08;10.95;;;;;;;9.27;85.24;100211.81;10140138;29;20059;-81
2023/03/21 13:04:00;;;;;;;20.85;11.40;;;;;;;9.73;84.59;100199.22;10159110;29;20067;-79
2023/03/21 13:09:10;;;;;;;23.08;10.18;;;;;;;9.50;84.49;100212.66;10144168;29;21336;-79
2023/03/21 13:14:21;;;;;;;17.73;9.25;;;;;;;9.44;84.75;100210.47;10158082;29;20052;-80
2023/03/21 13:19:30;;;;;;;19.38;9.98;;;;;;;9.49;84.77;100216.31;10139771;29;20531;-79
2023/03/21 13:24:39;;;;;;;16.25;8.98;;;;;;;9.38;85.75;100202.03;10154436;29;20045;-80
2023/03/21 13:29:48;;;;;;;22.40;9.05;;;;;;;9.68;84.24;100190.69;10135500;29;20506;-79
2023/03/21 13:34:55;;;;;;;19.92;9.20;;;;;;;9.62;84.97;100175.97;10152400;29;20581;-80
2023/03/21 13:40:08;;;;;;;9.05;6.90;;;;;;;9.51;83.39;100178.66;10146534;29;20044;-79
2023/03/21 13:45:24;;;;;;;14.82;9.82;;;;;;;9.70;83.76;100173.50;10159017;29;20124;-79
2023/03/21 13:50:36;;;;;;;12.02;8.77;;;;;;;10.03;82.15;100157.50;10137555;29;20055;-80
2023/03/21 13:55:41;;;;;;;15.65;8.20;;;;;;;9.57;81.68;100163.91;10150054;29;20043;-81
2023/03/21 14:01:10;;;;;;;14.10;7.50;;;;;;;10.31;79.66;100151.56;10159862;29;20054;-78
2023/03/21 14:06:15;;;;;;;13.60;7.32;;;;;;;10.52;78.78;100143.53;10144066;29;20052;-81
2023/03/21 14:11:20;;;;;;;10.07;6.70;;;;;;;10.59;79.16;100133.13;10150459;29;20053;-78
2023/03/21 14:16:27;;;;;;;10.93;6.53;;;;;;;10.75;78.57;100133.53;10149492;29;20052;-79
2023/03/21 14:21:32;;;;;;;11.05;6.55;;;;;;;10.78;78.72;100117.13;10143168;29;20426;-80
2023/03/21 14:26:37;;;;;;;11.05;5.55;;;;;;;10.78;77.81;100108.22;10135873;29;20056;-79
2023/03/21 14:31:42;;;;;;;8.50;5.55;;;;;;;10.84;77.39;100103.16;10143484;29;20515;-81
2023/03/21 14:36:45;;;;;;;9.80;5.60;;;;;;;10.90;78.07;100096.41;10129271;29;20059;-81
2023/03/21 14:42:04;;;;;;;7.50;5.38;;;;;;;10.80;78.15;100095.50;10155950;29;20127;-79
2023/03/21 14:47:18;;;;;;;7.50;5.25;;;;;;;10.61;78.41;100093.53;10136695;29;20708;-79
2023/03/21 14:52:24;;;;;;;8.90;5.85;;;;;;;10.88;78.01;100095.69;10150511;29;20441;-81
2023/03/21 14:57:29;;;;;;;11.48;5.70;;;;;;;10.84;77.94;100080.81;10150802;29;20055;-81
2023/03/21 15:02:36;;;;;;;11.15;6.28;;;;;;;10.90;77.45;100057.94;10127695;29;20052;-81
2023/03/21 15:07:39;;;;;;;7.05;5.18;;;;;;;10.85;77.07;100066.38;10155383;29;21587;-81
2023/03/21 15:12:51;;;;;;;8.45;5.05;;;;;;;10.63;77.94;100064.72;10142476;29;20044;-81
2023/03/21 15:18:00;;;;;;;12.20;5.50;;;;;;;10.73;77.68;100049.50;10150660;29;20051;-80
2023/03/21 15:23:07;;;;;;;7.40;3.85;;;;;;;10.43;75.77;100052.16;10136625;29;20195;-82
2023/03/21 15:28:14;;;;;;;8.48;4.78;;;;;;;10.82;75.23;100024.53;10134770;29;20062;-82
2023/03/21 15:33:19;;;;;;;5.43;3.70;;;;;;;10.48;73.67;100034.69;10160217;29;20043;-81
2023/03/21 15:38:28;;;;;;;7.65;3.83;;;;;;;10.34;73.44;100040.41;10140596;29;20052;-82
2023/03/21 15:43:38;;;;;;;5.82;3.50;;;;;;;10.34;73.44;100025.13;10118997;29;20058;-81
2023/03/21 15:48:44;;;;;;;4.47;2.75;;;;;;;10.31;71.38;100019.16;10148485;29;20060;-82
2023/03/21 15:53:47;;;;;;;5.28;3.17;;;;;;;10.45;71.30;100067.16;10146784;29;20070;-81
2023/03/21 15:58:52;;;;;;;4.88;2.63;;;;;;;10.16;70.88;100019.47;10116023;29;20054;-82
2023/03/21 16:04:01;;;;;;;4.30;2.30;;;;;;;10.07;70.14;100020.28;10144339;29;20062;-79
2023/03/21 16:09:12;;;;;;;3.65;2.40;;;;;;;9.99;69.81;100016.53;10120631;29;20058;-81
2023/03/21 16:14:16;;;;;;;6.72;2.58;;;;;;;9.99;68.89;100009.34;10150802;29;20177;-82
2023/03/21 16:19:20;;;;;;;3.17;1.80;;;;;;;9.79;68.63;100016.34;10140728;29;20063;-80
2023/03/21 16:24:23;;;;;;;5.13;2.15;;;;;;;10.04;68.02;100012.50;10149543;29;20103;-81
2023/03/21 16:29:26;;;;;;;6.05;2.15;;;;;;;10.20;67.40;100013.84;10166321;29;20074;-83
2023/03/21 16:34:31;;;;;;;4.38;2.20;;;;;;;9.80;68.17;100019.88;10155936;29;20527;-79
2023/03/21 16:39:33;;;;;;;6.00;2.83;;;;;;;10.25;67.89;100009.78;10142044;29;20051;-83
2023/03/21 16:44:38;;;;;;;3.67;2.90;;;;;;;10.81;66.57;100008.56;10148077;29;20091;-83
2023/03/21 16:49:42;;;;;;;5.35;2.22;;;;;;;10.37;66.38;100010.59;10145817;29;20135;-82
2023/03/21 16:54:45;;;;;;;5.18;2.53;;;;;;;10.32;66.26;99994.03;10142628;29;20236;-83
2023/03/21 16:59:47;;;;;;;4.60;2.40;;;;;;;10.28;66.74;100000.63;10153654;29;20060;-83
2023/03/21 17:04:52;;;;;;;4.28;2.30;;;;;;;10.32;66.40;100005.59;10140536;29;20118;-83
2023/03/21 17:09:54;;;;;;;4.30;2.67;;;;;;;10.25;66.84;100014.31;10145670;29;20059;-82
2023/03/21 17:14:57;;;;;;;4.47;2.83;;;;;;;10.47;66.15;100011.47;10149175;29;20106;-84
2023/03/21 17:20:02;;;;;;;3.55;2.80;;;;;;;10.36;66.27;100020.44;10147535;29;20058;-82
2023/03/21 17:25:06;;;;;;;2.92;2.30;;;;;;;10.21;66.85;100032.53;10154134;29;20435;-81
2023/03/21 17:30:19;;;;;;;6.75;2.60;;;;;;;10.33;66.40;100031.47;10152429;29;20052;-81
2023/03/21 17:35:24;;;;;;;7.80;2.53;;;;;;;10.37;66.38;100027.53;10153857;29;20055;-82
2023/03/21 17:40:30;;;;;;;3.45;2.45;;;;;;;10.22;66.83;100028.84;10169063;29;20071;-83
2023/03/21 17:45:33;;;;;;;5.43;3.42;;;;;;;10.25;67.02;100025.06;10154803;29;20048;-84
2023/03/21 17:50:38;;;;;;;6.07;3.50;;;;;;;10.17;67.60;100023.00;10160892;29;20374;-82
2023/03/21 17:55:41;;;;;;;6.00;3.28;;;;;;;10.15;67.53;100033.06;10156304;29;20143;-80
2023/03/21 18:00:45;;;;;;;8.45;3.25;;;;;;;10.16;67.19;100038.28;10152612;29;20048;-83
2023/03/21 18:05:50;;;;;;;3.25;2.95;;;;;;;10.16;67.29;100050.84;10160704;29;20118;-82
2023/03/21 18:10:52;;;;;;;6.85;3.80;;;;;;;10.11;67.56;100055.75;10149945;29;20056;-81
2023/03/21 18:15:55;;;;;;;6.00;3.63;;;;;;;10.16;67.29;100056.22;10142844;29;20126;-83
2023/03/21 18:20:59;;;;;;;5.88;3.22;;;;;;;10.24;66.84;100048.38;10159737;29;20056;-83
2023/03/21 18:26:03;;;;;;;6.65;4.93;;;;;;;10.25;67.55;100046.53;10155803;29;20111;-82
2023/03/21 18:31:07;;;;;;;5.55;3.88;;;;;;;10.19;68.13;100057.78;10152602;29;20451;-82
2023/03/21 18:36:21;;;;;;;4.63;3.72;;;;;;;10.17;67.61;100053.41;10160177;29;20076;-80
2023/03/21 18:41:28;;;;;;;4.75;3.85;;;;;;;10.20;68.01;100048.75;10150488;29;20072;-80
2023/03/21 18:46:31;;;;;;;9.80;4.80;;;;;;;10.10;68.22;100046.00;10159954;29;20047;-82
2023/03/21 18:51:36;;;;;;;6.90;4.68;;;;;;;10.13;68.58;100056.47;10164464;29;20059;-82
2023/03/21 18:56:38;;;;;;;6.25;4.32;;;;;;;10.13;68.70;100056.47;10156289;29;20051;-81
2023/03/21 19:02:01;;;;;;;;;;;;;;;10.13;68.59;100049.28;10165441;29;20590;-82
2023/03/21 19:07:07;;;;;;;7.60;4.35;;;;;;;10.19;67.92;100053.25;10165130;29;19933;-81
2023/03/21 19:12:10;;;;;;;5.85;3.80;;;;;;;10.25;67.74;100051.91;10134834;29;20076;-81
2023/03/21 19:17:13;;;;;;;5.70;3.90;;;;;;;10.25;67.16;100052.75;10153771;29;20079;-84
2023/03/21 19:22:37;;;;;;;6.32;4.18;;;;;;;10.10;67.59;100040.63;10158596;29;20052;-83
2023/03/21 19:27:40;;;;;;;6.50;4.32;;;;;;;10.27;67.23;100042.72;10150310;29;20070;-81
2023/03/21 19:32:43;;;;;;;7.95;4.75;;;;;;;10.29;67.07;100032.72;10157034;29;20722;-81
2023/03/21 19:37:47;;;;;;;5.80;4.38;;;;;;;10.25;67.34;100033.09;10148317;29;20143;-78
2023/03/21 19:42:51;;;;;;;5.72;4.15;;;;;;;10.19;67.59;100030.94;10166011;29;20053;-80
2023/03/21 19:47:54;;;;;;;9.88;4.25;;;;;;;10.21;67.37;100031.69;10158882;29;20122;-84
2023/03/21 19:52:59;;;;;;;7.78;4.43;;;;;;;10.05;67.79;100016.88;10154196;29;20777;-81
2023/03/21 19:58:02;;;;;;;9.15;4.70;;;;;;;9.93;68.17;100026.81;10161268;29;20221;-83
2023/03/21 20:03:07;;;;;;;8.45;4.50;;;;;;;9.91;68.36;100020.72;10156363;29;20052;-80
2023/03/21 20:08:11;;;;;;;7.53;5.18;;;;;;;9.80;68.81;100026.09;10153421;29;20132;-82
2023/03/21 20:13:14;;;;;;;6.45;4.97;;;;;;;9.75;69.05;100032.81;10156483;29;21174;-82
2023/03/21 20:18:17;;;;;;;9.27;5.32;;;;;;;9.76;68.94;100032.69;10145097;29;20468;-81
2023/03/21 20:23:21;;;;;;;8.23;5.50;;;;;;;9.77;69.08;100034.41;10154452;29;20055;-83
2023/03/21 20:28:25;;;;;;;10.20;5.40;;;;;;;9.73;69.33;100032.94;10155936;29;20260;-81
2023/03/21 20:33:31;;;;;;;10.02;6.20;;;;;;;9.64;69.47;100025.66;10146307;29;20044;-81
2023/03/21 20:38:35;;;;;;;9.18;5.95;;;;;;;9.54;70.20;100022.03;10141439;29;20055;-81
2023/03/21 20:43:38;;;;;;;7.28;5.57;;;;;;;9.58;70.03;100024.34;10161623;29;20127;-83
2023/03/21 20:49:01;;;;;;;;;;;;;;;9.49;70.21;100022.44;10146754;29;20052;-81
2023/03/21 20:54:05;;;;;;;8.77;6.22;;;;;;;9.37;70.59;100021.59;10143891;29;19988;-80
2023/03/21 20:59:10;;;;;;;9.23;6.03;;;;;;;9.33;70.80;100028.19;10146482;29;20048;-82
2023/03/21 21:04:30;;;;;;;9.30;6.28;;;;;;;9.31;71.02;100018.56;10157692;29;20056;-83
2023/03/21 21:09:54;;;;;;;11.07;6.93;;;;;;;9.33;71.07;100020.16;10163973;29;20052;-82
2023/03/21 21:14:56;;;;;;;9.38;6.55;;;;;;;9.46;71.15;100014.63;10132776;29;20116;-81
2023/03/21 21:20:00;;;;;;;10.70;6.72;;;;;;;9.46;71.25;100018.19;10161191;29;20048;-84
2023/03/21 21:25:05;;;;;;;13.02;6.45;;;;;;;9.45;71.42;100013.78;10132759;29;20693;-82
2023/03/21 21:30:09;;;;;;;11.02;6.88;;;;;;;9.56;71.15;100004.84;10153230;29;20056;-84
2023/03/21 21:35:12;;;;;;;13.18;7.28;;;;;;;9.53;70.90;99999.75;10174037;29;20071;-83
2023/03/21 21:40:19;;;;;;;13.23;7.13;;;;;;;9.66;70.58;99978.13;10165574;29;20168;-82
2023/03/21 21:45:22;;;;;;;9.90;6.97;;;;;;;9.62;70.61;99973.97;10163908;29;20050;-83
2023/03/21 21:50:24;;;;;;;12.18;7.07;;;;;;;9.58;70.80;99973.41;10156570;29;20074;-80
2023/03/21 21:55:29;;;;;;;9.93;6.97;;;;;;;9.59;70.59;99971.56;10198985;29;20052;-84
2023/03/21 22:00:33;;;;;;;9.05;6.47;;;;;;;9.47;71.03;99974.28;10208645;29;20044;-80
2023/03/21 22:05:36;;;;;;;7.80;6.38;;;;;;;9.46;70.68;99982.44;10202308;29;20044;-82
2023/03/21 22:10:41;;;;;;;13.10;7.80;;;;;;;9.51;70.45;99978.41;10197184;29;20043;-80
2023/03/21 22:15:45;;;;;;;11.57;7.05;;;;;;;9.44;70.65;99971.88;10207900;29;20114;-81
2023/03/21 22:20:51;;;;;;;11.93;7.25;;;;;;;9.45;70.49;99970.88;10202897;29;20044;-82
2023/03/21 22:25:57;;;;;;;9.57;6.78;;;;;;;9.56;69.86;99967.31;10188879;29;20055;-83
2023/03/21 22:31:08;;;;;;;9.27;6.80;;;;;;;9.45;70.21;99968.19;10203697;29;20096;-79
2023/03/21 22:36:11;;;;;;;10.05;7.07;;;;;;;9.37;70.19;99967.13;10183406;29;20056;-85
2023/03/21 22:41:16;;;;;;;8.70;6.65;;;;;;;9.43;70.06;99961.25;10210989;29;20032;-85
2023/03/21 22:46:18;;;;;;;8.98;7.28;;;;;;;9.42;70.10;99963.09;10204600;29;20052;-84
2023/03/21 22:51:21;;;;;;;11.65;6.75;;;;;;;9.50;69.57;99966.00;10196622;29;20064;-84
2023/03/21 22:56:25;;;;;;;12.00;6.80;;;;;;;9.40;69.81;99961.50;10199515;29;20048;-84
2023/03/21 23:01:30;;;;;;;9.95;6.57;;;;;;;9.57;69.44;99958.31;10186175;29;20503;-82
2023/03/21 23:06:33;;;;;;;10.52;6.20;;;;;;;9.46;69.22;99956.50;10187356;29;20097;-84
2023/03/21 23:11:38;;;;;;;12.88;7.32;;;;;;;9.63;69.20;99957.78;10206679;29;20051;-80
2023/03/21 23:16:41;;;;;;;7.93;6.35;;;;;;;9.52;69.02;99944.44;10181372;29;20395;-82
2023/03/21 23:21:45;;;;;;;11.35;6.57;;;;;;;9.68;68.62;99943.97;10202711;29;20051;-83
2023/03/21 23:26:49;;;;;;;13.30;6.50;;;;;;;9.61;68.84;99946.31;10198151;29;20048;-84
2023/03/21 23:31:52;;;;;;;9.63;6.43;;;;;;;9.67;68.44;99944.97;10191904;29;20039;-85